sensor_id;sensor_type;location;lat;lon;timestamp;pressure;altitude;pressure_sealevel;temperature;humidity
38630;BME280;24384;51.988;4.644;2023-07-29T00:00:30;100745.19;;;17.80;100.00
38630;BME280;24384;51.988;4.644;2023-07-29T00:02:55;100740.06;;;17.77;100.00
38630;BME280;24384;51.988;4.644;2023-07-29T00:05:21;100742.53;;;17.80;100.00
38630;BME280;24384;51.988;4.644;2023-07-29T00:07:46;100741.31;;;17.71;100.00
38630;BME280;24384;51.988;4.644;2023-07-29T00:10:11;100737.84;;;17.84;100.00
38630;BME280;24384;51.988;4.644;2023-07-29T00:12:36;100735.56;;;17.78;100.00
38630;BME280;24384;51.988;4.644;2023-07-29T00:15:02;100725.88;;;17.77;100.00
38630;BME280;24384;51.988;4.644;2023-07-29T00:17:27;100733.81;;;17.64;100.00
38630;BME280;24384;51.988;4.644;2023-07-29T00:19:52;100728.03;;;17.57;100.00
38630;BME280;24384;51.988;4.644;2023-07-29T00:22:17;100726.09;;;17.59;100.00
38630;BME280;24384;51.988;4.644;2023-07-29T00:24:43;100726.97;;;17.60;100.00
38630;BME280;24384;51.988;4.644;2023-07-29T00:27:08;100724.59;;;17.55;100.00
38630;BME280;24384;51.988;4.644;2023-07-29T00:29:33;100723.66;;;17.42;100.00
38630;BME280;24384;51.988;4.644;2023-07-29T00:31:59;100723.47;;;17.45;100.00
38630;BME280;24384;51.988;4.644;2023-07-29T00:34:25;100728.16;;;17.41;100.00
38630;BME280;24384;51.988;4.644;2023-07-29T00:36:50;100721.09;;;17.40;100.00
38630;BME280;24384;51.988;4.644;2023-07-29T00:39:15;100721.69;;;17.31;100.00
38630;BME280;24384;51.988;4.644;2023-07-29T00:41:40;100722.63;;;17.30;100.00
38630;BME280;24384;51.988;4.644;2023-07-29T00:44:06;100713.88;;;17.28;100.00
38630;BME280;24384;51.988;4.644;2023-07-29T00:46:34;100713.03;;;17.27;100.00
38630;BME280;24384;51.988;4.644;2023-07-29T00:49:00;100718.19;;;17.30;100.00
38630;BME280;24384;51.988;4.644;2023-07-29T00:51:25;100718.84;;;17.20;100.00
38630;BME280;24384;51.988;4.644;2023-07-29T00:53:50;100721.88;;;17.28;100.00
38630;BME280;24384;51.988;4.644;2023-07-29T00:56:16;100723.50;;;17.30;100.00
38630;BME280;24384;51.988;4.644;2023-07-29T00:58:41;100718.81;;;17.34;100.00
38630;BME280;24384;51.988;4.644;2023-07-29T01:01:07;100712.53;;;17.21;100.00
38630;BME280;24384;51.988;4.644;2023-07-29T01:03:32;100720.63;;;17.19;100.00
38630;BME280;24384;51.988;4.644;2023-07-29T01:06:12;100709.59;;;17.25;100.00
38630;BME280;24384;51.988;4.644;2023-07-29T01:11:31;100716.19;;;17.20;100.00
38630;BME280;24384;51.988;4.644;2023-07-29T01:14:04;100702.28;;;17.14;100.00
38630;BME280;24384;51.988;4.644;2023-07-29T01:16:36;100701.88;;;17.21;100.00
38630;BME280;24384;51.988;4.644;2023-07-29T01:19:05;100700.78;;;17.10;100.00
38630;BME280;24384;51.988;4.644;2023-07-29T01:21:35;100701.25;;;17.03;100.00
38630;BME280;24384;51.988;4.644;2023-07-29T01:24:01;100700.88;;;17.09;100.00
38630;BME280;24384;51.988;4.644;2023-07-29T01:26:26;100694.88;;;17.20;100.00
38630;BME280;24384;51.988;4.644;2023-07-29T01:28:53;100696.09;;;17.14;100.00
38630;BME280;24384;51.988;4.644;2023-07-29T01:31:27;100698.28;;;16.93;100.00
38630;BME280;24384;51.988;4.644;2023-07-29T01:34:05;100697.13;;;17.11;100.00
38630;BME280;24384;51.988;4.644;2023-07-29T01:36:33;100692.97;;;17.07;100.00
38630;BME280;24384;51.988;4.644;2023-07-29T01:39:00;100693.94;;;16.92;100.00
38630;BME280;24384;51.988;4.644;2023-07-29T01:41:27;100699.81;;;16.97;100.00
38630;BME280;24384;51.988;4.644;2023-07-29T01:43:53;100692.56;;;16.99;100.00
38630;BME280;24384;51.988;4.644;2023-07-29T01:46:19;100695.44;;;16.96;100.00
38630;BME280;24384;51.988;4.644;2023-07-29T01:48:45;100689.81;;;17.00;100.00
38630;BME280;24384;51.988;4.644;2023-07-29T01:51:11;100686.59;;;16.95;100.00
38630;BME280;24384;51.988;4.644;2023-07-29T01:53:37;100682.78;;;16.99;100.00
38630;BME280;24384;51.988;4.644;2023-07-29T01:56:02;100688.78;;;16.89;100.00
38630;BME280;24384;51.988;4.644;2023-07-29T01:58:27;100683.63;;;17.00;100.00
38630;BME280;24384;51.988;4.644;2023-07-29T02:00:53;100674.69;;;16.87;100.00
38630;BME280;24384;51.988;4.644;2023-07-29T02:03:18;100676.41;;;16.88;100.00
38630;BME280;24384;51.988;4.644;2023-07-29T02:05:43;100679.16;;;16.86;100.00
38630;BME280;24384;51.988;4.644;2023-07-29T02:08:09;100670.97;;;16.75;100.00
38630;BME280;24384;51.988;4.644;2023-07-29T02:10:34;100682.66;;;16.72;100.00
38630;BME280;24384;51.988;4.644;2023-07-29T02:13:00;100677.41;;;16.71;100.00
38630;BME280;24384;51.988;4.644;2023-07-29T02:15:25;100679.44;;;16.81;100.00
38630;BME280;24384;51.988;4.644;2023-07-29T02:17:50;100677.78;;;16.79;100.00
38630;BME280;24384;51.988;4.644;2023-07-29T02:20:17;100672.84;;;16.73;100.00
38630;BME280;24384;51.988;4.644;2023-07-29T02:22:42;100672.94;;;16.71;100.00
38630;BME280;24384;51.988;4.644;2023-07-29T02:25:07;100666.78;;;16.71;100.00
38630;BME280;24384;51.988;4.644;2023-07-29T02:27:33;100664.75;;;16.74;100.00
38630;BME280;24384;51.988;4.644;2023-07-29T02:29:58;100668.13;;;16.78;100.00
38630;BME280;24384;51.988;4.644;2023-07-29T02:32:23;100665.56;;;16.76;100.00
38630;BME280;24384;51.988;4.644;2023-07-29T02:34:49;100665.16;;;16.68;100.00
38630;BME280;24384;51.988;4.644;2023-07-29T02:37:14;100659.06;;;16.66;100.00
38630;BME280;24384;51.988;4.644;2023-07-29T02:39:39;100655.47;;;16.67;100.00
38630;BME280;24384;51.988;4.644;2023-07-29T02:42:05;100645.09;;;16.62;100.00
38630;BME280;24384;51.988;4.644;2023-07-29T02:44:30;100643.19;;;16.64;100.00
38630;BME280;24384;51.988;4.644;2023-07-29T02:46:55;100637.41;;;16.58;100.00
38630;BME280;24384;51.988;4.644;2023-07-29T02:49:21;100639.84;;;16.46;100.00
38630;BME280;24384;51.988;4.644;2023-07-29T02:51:47;100633.75;;;16.59;100.00
38630;BME280;24384;51.988;4.644;2023-07-29T02:54:12;100624.34;;;16.68;100.00
38630;BME280;24384;51.988;4.644;2023-07-29T02:56:37;100625.88;;;16.57;100.00
38630;BME280;24384;51.988;4.644;2023-07-29T02:59:03;100637.56;;;16.69;100.00
38630;BME280;24384;51.988;4.644;2023-07-29T03:01:28;100643.47;;;16.60;100.00
38630;BME280;24384;51.988;4.644;2023-07-29T03:03:53;100654.31;;;16.57;100.00
38630;BME280;24384;51.988;4.644;2023-07-29T03:06:19;100654.69;;;16.51;100.00
38630;BME280;24384;51.988;4.644;2023-07-29T03:08:44;100651.25;;;16.49;100.00
38630;BME280;24384;51.988;4.644;2023-07-29T03:11:12;100656.53;;;16.34;100.00
38630;BME280;24384;51.988;4.644;2023-07-29T03:13:38;100653.78;;;16.36;100.00
38630;BME280;24384;51.988;4.644;2023-07-29T03:16:14;100647.91;;;16.31;100.00
38630;BME280;24384;51.988;4.644;2023-07-29T03:18:40;100646.88;;;16.33;100.00
38630;BME280;24384;51.988;4.644;2023-07-29T03:21:06;100647.63;;;16.35;100.00
38630;BME280;24384;51.988;4.644;2023-07-29T03:23:32;100656.63;;;16.33;100.00
38630;BME280;24384;51.988;4.644;2023-07-29T03:25:58;100653.69;;;16.37;100.00
38630;BME280;24384;51.988;4.644;2023-07-29T03:28:25;100647.44;;;16.38;100.00
38630;BME280;24384;51.988;4.644;2023-07-29T03:30:52;100651.22;;;16.34;100.00
38630;BME280;24384;51.988;4.644;2023-07-29T03:33:18;100658.81;;;16.26;100.00
38630;BME280;24384;51.988;4.644;2023-07-29T03:35:43;100653.41;;;16.27;100.00
38630;BME280;24384;51.988;4.644;2023-07-29T03:38:10;100655.13;;;16.28;100.00
38630;BME280;24384;51.988;4.644;2023-07-29T03:40:36;100660.19;;;16.33;100.00
38630;BME280;24384;51.988;4.644;2023-07-29T03:43:01;100655.69;;;16.34;100.00
38630;BME280;24384;51.988;4.644;2023-07-29T03:45:26;100658.63;;;16.29;100.00
38630;BME280;24384;51.988;4.644;2023-07-29T03:47:52;100663.22;;;16.27;100.00
38630;BME280;24384;51.988;4.644;2023-07-29T03:50:17;100664.63;;;16.33;100.00
38630;BME280;24384;51.988;4.644;2023-07-29T03:52:42;100658.47;;;16.32;100.00
38630;BME280;24384;51.988;4.644;2023-07-29T03:55:08;100653.50;;;16.26;100.00
38630;BME280;24384;51.988;4.644;2023-07-29T03:57:33;100647.06;;;16.30;100.00
38630;BME280;24384;51.988;4.644;2023-07-29T03:59:58;100654.16;;;16.29;100.00
38630;BME280;24384;51.988;4.644;2023-07-29T04:02:24;100657.69;;;16.30;100.00
38630;BME280;24384;51.988;4.644;2023-07-29T04:04:49;100652.47;;;16.28;100.00
38630;BME280;24384;51.988;4.644;2023-07-29T04:07:14;100662.25;;;16.28;100.00
38630;BME280;24384;51.988;4.644;2023-07-29T04:09:40;100652.94;;;16.35;100.00
38630;BME280;24384;51.988;4.644;2023-07-29T04:12:05;100656.38;;;16.37;100.00
38630;BME280;24384;51.988;4.644;2023-07-29T04:14:30;100655.97;;;16.29;100.00
38630;BME280;24384;51.988;4.644;2023-07-29T04:16:56;100650.00;;;16.40;100.00
38630;BME280;24384;51.988;4.644;2023-07-29T04:19:21;100648.28;;;16.39;100.00
38630;BME280;24384;51.988;4.644;2023-07-29T04:21:47;100652.38;;;16.44;100.00
38630;BME280;24384;51.988;4.644;2023-07-29T04:24:12;100657.25;;;16.38;100.00
38630;BME280;24384;51.988;4.644;2023-07-29T04:26:37;100654.06;;;16.31;100.00
38630;BME280;24384;51.988;4.644;2023-07-29T04:29:04;100660.00;;;16.36;100.00
38630;BME280;24384;51.988;4.644;2023-07-29T04:31:29;100650.47;;;16.32;100.00
38630;BME280;24384;51.988;4.644;2023-07-29T04:33:54;100654.66;;;16.36;100.00
38630;BME280;24384;51.988;4.644;2023-07-29T04:36:21;100666.16;;;16.37;100.00
38630;BME280;24384;51.988;4.644;2023-07-29T04:38:46;100658.19;;;16.37;100.00
38630;BME280;24384;51.988;4.644;2023-07-29T04:41:12;100667.44;;;16.45;100.00
38630;BME280;24384;51.988;4.644;2023-07-29T04:43:37;100661.13;;;16.46;100.00
38630;BME280;24384;51.988;4.644;2023-07-29T04:46:06;100665.69;;;16.44;100.00
38630;BME280;24384;51.988;4.644;2023-07-29T04:48:31;100672.56;;;16.49;100.00
38630;BME280;24384;51.988;4.644;2023-07-29T04:50:57;100678.16;;;16.58;100.00
38630;BME280;24384;51.988;4.644;2023-07-29T04:53:22;100673.31;;;16.65;100.00
38630;BME280;24384;51.988;4.644;2023-07-29T04:55:47;100666.31;;;16.64;100.00
38630;BME280;24384;51.988;4.644;2023-07-29T04:58:12;100678.16;;;16.73;100.00
38630;BME280;24384;51.988;4.644;2023-07-29T05:00:38;100681.50;;;16.62;100.00
38630;BME280;24384;51.988;4.644;2023-07-29T05:03:03;100672.38;;;16.66;100.00
38630;BME280;24384;51.988;4.644;2023-07-29T05:05:28;100685.22;;;16.74;100.00
38630;BME280;24384;51.988;4.644;2023-07-29T05:07:53;100677.72;;;16.66;100.00
38630;BME280;24384;51.988;4.644;2023-07-29T05:10:19;100665.44;;;16.63;100.00
38630;BME280;24384;51.988;4.644;2023-07-29T05:12:44;100668.09;;;16.63;100.00
38630;BME280;24384;51.988;4.644;2023-07-29T05:15:10;100668.69;;;16.69;100.00
38630;BME280;24384;51.988;4.644;2023-07-29T05:17:35;100663.06;;;16.73;100.00
38630;BME280;24384;51.988;4.644;2023-07-29T05:20:00;100661.63;;;16.68;100.00
38630;BME280;24384;51.988;4.644;2023-07-29T05:22:26;100661.53;;;16.83;100.00
38630;BME280;24384;51.988;4.644;2023-07-29T05:24:51;100661.63;;;16.82;100.00
38630;BME280;24384;51.988;4.644;2023-07-29T05:27:16;100655.09;;;16.88;100.00
38630;BME280;24384;51.988;4.644;2023-07-29T05:29:42;100653.28;;;16.88;100.00
38630;BME280;24384;51.988;4.644;2023-07-29T05:32:07;100649.50;;;16.92;100.00
38630;BME280;24384;51.988;4.644;2023-07-29T05:34:32;100647.47;;;16.96;100.00
38630;BME280;24384;51.988;4.644;2023-07-29T05:36:58;100650.88;;;16.83;100.00
38630;BME280;24384;51.988;4.644;2023-07-29T05:39:23;100651.66;;;16.86;100.00
38630;BME280;24384;51.988;4.644;2023-07-29T05:41:49;100653.88;;;16.93;100.00
38630;BME280;24384;51.988;4.644;2023-07-29T05:44:14;100653.00;;;17.07;100.00
38630;BME280;24384;51.988;4.644;2023-07-29T05:46:39;100652.63;;;17.13;100.00
38630;BME280;24384;51.988;4.644;2023-07-29T05:49:05;100652.88;;;17.23;100.00
38630;BME280;24384;51.988;4.644;2023-07-29T05:51:30;100656.78;;;17.17;100.00
38630;BME280;24384;51.988;4.644;2023-07-29T05:53:55;100656.78;;;17.32;100.00
38630;BME280;24384;51.988;4.644;2023-07-29T05:56:20;100663.09;;;17.16;100.00
38630;BME280;24384;51.988;4.644;2023-07-29T05:58:46;100662.09;;;17.17;100.00
38630;BME280;24384;51.988;4.644;2023-07-29T06:01:11;100668.41;;;17.16;100.00
38630;BME280;24384;51.988;4.644;2023-07-29T06:03:37;100675.25;;;17.21;100.00
38630;BME280;24384;51.988;4.644;2023-07-29T06:06:02;100675.81;;;17.26;100.00
38630;BME280;24384;51.988;4.644;2023-07-29T06:08:27;100671.88;;;17.31;100.00
38630;BME280;24384;51.988;4.644;2023-07-29T06:10:59;100668.97;;;17.22;100.00
38630;BME280;24384;51.988;4.644;2023-07-29T06:13:24;100673.72;;;17.31;100.00
38630;BME280;24384;51.988;4.644;2023-07-29T06:15:49;100672.38;;;17.38;100.00
38630;BME280;24384;51.988;4.644;2023-07-29T06:18:15;100669.31;;;17.44;100.00
38630;BME280;24384;51.988;4.644;2023-07-29T06:20:40;100661.66;;;17.52;100.00
38630;BME280;24384;51.988;4.644;2023-07-29T06:23:05;100671.09;;;17.44;100.00
38630;BME280;24384;51.988;4.644;2023-07-29T06:25:31;100668.13;;;17.63;100.00
38630;BME280;24384;51.988;4.644;2023-07-29T06:27:56;100670.97;;;17.60;100.00
38630;BME280;24384;51.988;4.644;2023-07-29T06:30:23;100671.94;;;17.59;100.00
38630;BME280;24384;51.988;4.644;2023-07-29T06:32:48;100667.91;;;17.66;100.00
38630;BME280;24384;51.988;4.644;2023-07-29T06:35:13;100674.00;;;17.68;100.00
38630;BME280;24384;51.988;4.644;2023-07-29T06:37:39;100674.44;;;17.47;100.00
38630;BME280;24384;51.988;4.644;2023-07-29T06:40:04;100674.94;;;17.67;100.00
38630;BME280;24384;51.988;4.644;2023-07-29T06:42:30;100677.44;;;17.97;100.00
38630;BME280;24384;51.988;4.644;2023-07-29T06:44:55;100671.91;;;18.13;100.00
38630;BME280;24384;51.988;4.644;2023-07-29T06:47:21;100677.94;;;18.42;100.00
38630;BME280;24384;51.988;4.644;2023-07-29T06:49:46;100675.91;;;18.59;100.00
38630;BME280;24384;51.988;4.644;2023-07-29T06:52:12;100672.31;;;18.86;100.00
38630;BME280;24384;51.988;4.644;2023-07-29T06:54:37;100676.03;;;18.83;100.00
38630;BME280;24384;51.988;4.644;2023-07-29T06:57:02;100681.03;;;18.75;100.00
38630;BME280;24384;51.988;4.644;2023-07-29T06:59:28;100678.78;;;19.07;100.00
38630;BME280;24384;51.988;4.644;2023-07-29T07:01:53;100669.66;;;19.36;100.00
38630;BME280;24384;51.988;4.644;2023-07-29T07:04:18;100676.13;;;19.20;100.00
38630;BME280;24384;51.988;4.644;2023-07-29T07:06:43;100678.59;;;18.98;100.00
38630;BME280;24384;51.988;4.644;2023-07-29T07:09:08;100676.78;;;18.72;100.00
38630;BME280;24384;51.988;4.644;2023-07-29T07:11:34;100683.31;;;18.55;100.00
38630;BME280;24384;51.988;4.644;2023-07-29T07:13:59;100682.66;;;18.77;100.00
38630;BME280;24384;51.988;4.644;2023-07-29T07:16:25;100677.22;;;18.66;100.00
38630;BME280;24384;51.988;4.644;2023-07-29T07:18:51;100685.41;;;18.50;100.00
38630;BME280;24384;51.988;4.644;2023-07-29T07:21:16;100676.56;;;18.50;100.00
38630;BME280;24384;51.988;4.644;2023-07-29T07:23:41;100672.38;;;18.46;100.00
38630;BME280;24384;51.988;4.644;2023-07-29T07:26:07;100674.84;;;18.36;100.00
38630;BME280;24384;51.988;4.644;2023-07-29T07:28:32;100684.16;;;18.43;100.00
38630;BME280;24384;51.988;4.644;2023-07-29T07:30:57;100689.38;;;18.57;100.00
38630;BME280;24384;51.988;4.644;2023-07-29T07:33:23;100692.78;;;18.59;100.00
38630;BME280;24384;51.988;4.644;2023-07-29T07:35:48;100689.69;;;18.66;100.00
38630;BME280;24384;51.988;4.644;2023-07-29T07:38:13;100693.97;;;18.68;100.00
38630;BME280;24384;51.988;4.644;2023-07-29T07:40:38;100697.19;;;18.73;100.00
38630;BME280;24384;51.988;4.644;2023-07-29T07:43:03;100692.91;;;18.84;100.00
38630;BME280;24384;51.988;4.644;2023-07-29T07:45:29;100693.69;;;18.86;100.00
38630;BME280;24384;51.988;4.644;2023-07-29T07:47:54;100695.06;;;18.78;100.00
38630;BME280;24384;51.988;4.644;2023-07-29T07:50:20;100702.72;;;18.70;100.00
38630;BME280;24384;51.988;4.644;2023-07-29T07:52:45;100708.28;;;18.67;100.00
38630;BME280;24384;51.988;4.644;2023-07-29T07:55:10;100700.59;;;18.63;100.00
38630;BME280;24384;51.988;4.644;2023-07-29T07:57:36;100705.41;;;18.57;100.00
38630;BME280;24384;51.988;4.644;2023-07-29T08:00:01;100705.19;;;18.60;100.00
38630;BME280;24384;51.988;4.644;2023-07-29T08:02:26;100703.16;;;18.51;100.00
38630;BME280;24384;51.988;4.644;2023-07-29T08:04:51;100702.97;;;18.93;100.00
38630;BME280;24384;51.988;4.644;2023-07-29T08:07:17;100699.59;;;19.41;100.00
38630;BME280;24384;51.988;4.644;2023-07-29T08:09:42;100706.50;;;19.56;99.34
38630;BME280;24384;51.988;4.644;2023-07-29T08:12:07;100714.84;;;19.52;98.51
38630;BME280;24384;51.988;4.644;2023-07-29T08:14:33;100702.78;;;19.83;97.17
38630;BME280;24384;51.988;4.644;2023-07-29T08:16:58;100706.72;;;20.26;97.81
38630;BME280;24384;51.988;4.644;2023-07-29T08:19:23;100709.91;;;20.31;95.34
38630;BME280;24384;51.988;4.644;2023-07-29T08:21:48;100709.88;;;20.19;94.33
38630;BME280;24384;51.988;4.644;2023-07-29T08:24:14;100707.41;;;20.05;96.34
38630;BME280;24384;51.988;4.644;2023-07-29T08:26:39;100711.72;;;19.95;96.99
38630;BME280;24384;51.988;4.644;2023-07-29T08:29:04;100713.47;;;19.83;95.94
38630;BME280;24384;51.988;4.644;2023-07-29T08:31:30;100717.25;;;19.67;96.82
38630;BME280;24384;51.988;4.644;2023-07-29T08:33:58;100713.34;;;19.60;96.23
38630;BME280;24384;51.988;4.644;2023-07-29T08:36:24;100711.63;;;19.59;98.34
38630;BME280;24384;51.988;4.644;2023-07-29T08:38:49;100707.66;;;19.52;98.07
38630;BME280;24384;51.988;4.644;2023-07-29T08:41:34;100719.59;;;19.35;99.64
38630;BME280;24384;51.988;4.644;2023-07-29T08:44:15;100730.13;;;19.12;100.00
38630;BME280;24384;51.988;4.644;2023-07-29T08:46:43;100727.97;;;18.79;100.00
38630;BME280;24384;51.988;4.644;2023-07-29T08:49:11;100731.78;;;18.49;100.00
38630;BME280;24384;51.988;4.644;2023-07-29T08:51:37;100728.44;;;18.33;100.00
38630;BME280;24384;51.988;4.644;2023-07-29T08:54:04;100726.03;;;18.55;100.00
38630;BME280;24384;51.988;4.644;2023-07-29T08:56:29;100728.44;;;18.99;100.00
38630;BME280;24384;51.988;4.644;2023-07-29T08:58:55;100729.69;;;19.06;100.00
38630;BME280;24384;51.988;4.644;2023-07-29T09:01:21;100724.13;;;19.09;100.00
38630;BME280;24384;51.988;4.644;2023-07-29T09:03:46;100725.31;;;19.05;100.00
38630;BME280;24384;51.988;4.644;2023-07-29T09:06:13;100723.06;;;19.11;100.00
38630;BME280;24384;51.988;4.644;2023-07-29T09:08:39;100728.09;;;19.16;100.00
38630;BME280;24384;51.988;4.644;2023-07-29T09:11:05;100725.38;;;19.42;100.00
38630;BME280;24384;51.988;4.644;2023-07-29T09:13:31;100718.31;;;19.41;100.00
38630;BME280;24384;51.988;4.644;2023-07-29T09:15:57;100723.22;;;19.47;100.00
38630;BME280;24384;51.988;4.644;2023-07-29T09:18:23;100718.81;;;19.46;100.00
38630;BME280;24384;51.988;4.644;2023-07-29T09:20:50;100723.88;;;19.38;100.00
38630;BME280;24384;51.988;4.644;2023-07-29T09:23:16;100733.84;;;19.23;100.00
38630;BME280;24384;51.988;4.644;2023-07-29T09:25:41;100737.06;;;19.15;100.00
38630;BME280;24384;51.988;4.644;2023-07-29T09:28:15;100731.50;;;19.18;100.00
38630;BME280;24384;51.988;4.644;2023-07-29T09:30:42;100726.91;;;19.07;100.00
38630;BME280;24384;51.988;4.644;2023-07-29T09:33:08;100729.47;;;19.09;100.00
38630;BME280;24384;51.988;4.644;2023-07-29T09:35:35;100725.75;;;18.99;100.00
38630;BME280;24384;51.988;4.644;2023-07-29T09:38:05;100729.03;;;19.15;100.00
38630;BME280;24384;51.988;4.644;2023-07-29T09:40:38;100729.47;;;19.22;100.00
38630;BME280;24384;51.988;4.644;2023-07-29T09:43:04;100739.84;;;19.26;100.00
38630;BME280;24384;51.988;4.644;2023-07-29T09:45:33;100728.81;;;19.18;100.00
38630;BME280;24384;51.988;4.644;2023-07-29T09:47:58;100738.91;;;19.02;100.00
38630;BME280;24384;51.988;4.644;2023-07-29T09:50:24;100729.69;;;18.93;100.00
38630;BME280;24384;51.988;4.644;2023-07-29T09:52:51;100729.91;;;19.03;100.00
38630;BME280;24384;51.988;4.644;2023-07-29T09:55:18;100732.91;;;18.85;100.00
38630;BME280;24384;51.988;4.644;2023-07-29T09:57:44;100732.56;;;18.77;100.00
38630;BME280;24384;51.988;4.644;2023-07-29T10:00:13;100735.56;;;18.98;100.00
38630;BME280;24384;51.988;4.644;2023-07-29T10:02:40;100729.50;;;18.96;100.00
38630;BME280;24384;51.988;4.644;2023-07-29T10:05:07;100735.91;;;19.06;100.00
38630;BME280;24384;51.988;4.644;2023-07-29T10:07:34;100735.88;;;19.19;100.00
38630;BME280;24384;51.988;4.644;2023-07-29T10:10:01;100740.56;;;19.28;100.00
38630;BME280;24384;51.988;4.644;2023-07-29T10:12:28;100737.78;;;19.30;100.00
38630;BME280;24384;51.988;4.644;2023-07-29T10:14:54;100732.28;;;19.44;100.00
38630;BME280;24384;51.988;4.644;2023-07-29T10:17:20;100739.28;;;19.34;100.00
38630;BME280;24384;51.988;4.644;2023-07-29T10:19:47;100747.88;;;19.01;100.00
38630;BME280;24384;51.988;4.644;2023-07-29T10:22:13;100745.09;;;18.89;100.00
38630;BME280;24384;51.988;4.644;2023-07-29T10:24:42;100751.69;;;18.71;100.00
38630;BME280;24384;51.988;4.644;2023-07-29T10:27:11;100748.94;;;18.85;100.00
38630;BME280;24384;51.988;4.644;2023-07-29T10:29:38;100756.38;;;18.67;100.00
38630;BME280;24384;51.988;4.644;2023-07-29T10:32:07;100750.28;;;18.52;100.00
38630;BME280;24384;51.988;4.644;2023-07-29T10:34:33;100753.63;;;18.29;100.00
38630;BME280;24384;51.988;4.644;2023-07-29T10:37:02;100756.38;;;18.14;100.00
38630;BME280;24384;51.988;4.644;2023-07-29T10:39:27;100752.28;;;18.08;100.00
38630;BME280;24384;51.988;4.644;2023-07-29T10:42:03;100747.03;;;18.07;100.00
38630;BME280;24384;51.988;4.644;2023-07-29T10:47:13;100757.69;;;17.80;100.00
38630;BME280;24384;51.988;4.644;2023-07-29T10:49:46;100751.13;;;17.71;100.00
38630;BME280;24384;51.988;4.644;2023-07-29T10:52:28;100750.75;;;17.77;100.00
38630;BME280;24384;51.988;4.644;2023-07-29T10:54:53;100754.94;;;17.81;100.00
38630;BME280;24384;51.988;4.644;2023-07-29T10:57:34;100753.66;;;18.01;100.00
38630;BME280;24384;51.988;4.644;2023-07-29T11:00:00;100752.69;;;18.02;100.00
38630;BME280;24384;51.988;4.644;2023-07-29T11:02:30;100756.50;;;18.25;100.00
38630;BME280;24384;51.988;4.644;2023-07-29T11:04:56;100756.19;;;18.30;100.00
38630;BME280;24384;51.988;4.644;2023-07-29T11:07:23;100755.13;;;18.33;100.00
38630;BME280;24384;51.988;4.644;2023-07-29T11:09:56;100744.38;;;18.47;100.00
38630;BME280;24384;51.988;4.644;2023-07-29T11:12:51;100746.56;;;18.81;100.00
38630;BME280;24384;51.988;4.644;2023-07-29T11:15:22;100744.00;;;19.18;100.00
38630;BME280;24384;51.988;4.644;2023-07-29T11:18:01;100735.41;;;19.38;100.00
38630;BME280;24384;51.988;4.644;2023-07-29T11:20:28;100731.50;;;19.68;100.00
38630;BME280;24384;51.988;4.644;2023-07-29T11:22:55;100734.34;;;20.26;100.00
38630;BME280;24384;51.988;4.644;2023-07-29T11:25:22;100732.34;;;20.77;100.00
38630;BME280;24384;51.988;4.644;2023-07-29T11:27:48;100726.66;;;21.04;100.00
38630;BME280;24384;51.988;4.644;2023-07-29T11:30:15;100730.03;;;21.40;100.00
38630;BME280;24384;51.988;4.644;2023-07-29T11:32:42;100727.69;;;21.69;98.73
38630;BME280;24384;51.988;4.644;2023-07-29T11:35:16;100731.34;;;21.68;99.22
38630;BME280;24384;51.988;4.644;2023-07-29T11:37:45;100731.59;;;21.42;96.74
38630;BME280;24384;51.988;4.644;2023-07-29T11:40:19;100735.41;;;21.06;96.41
38630;BME280;24384;51.988;4.644;2023-07-29T11:42:46;100733.69;;;20.93;99.90
38630;BME280;24384;51.988;4.644;2023-07-29T11:45:12;100738.28;;;20.69;98.33
38630;BME280;24384;51.988;4.644;2023-07-29T11:47:37;100735.41;;;20.48;99.62
38630;BME280;24384;51.988;4.644;2023-07-29T11:50:08;100738.84;;;20.50;99.32
38630;BME280;24384;51.988;4.644;2023-07-29T11:52:40;100745.94;;;20.62;100.00
38630;BME280;24384;51.988;4.644;2023-07-29T11:55:06;100744.09;;;20.63;100.00
38630;BME280;24384;51.988;4.644;2023-07-29T11:57:36;100746.53;;;20.54;98.11
38630;BME280;24384;51.988;4.644;2023-07-29T12:00:06;100749.25;;;20.66;100.00
38630;BME280;24384;51.988;4.644;2023-07-29T12:02:32;100752.94;;;20.52;98.75
38630;BME280;24384;51.988;4.644;2023-07-29T12:05:03;100748.78;;;20.48;98.97
38630;BME280;24384;51.988;4.644;2023-07-29T12:07:29;100752.22;;;20.50;100.00
38630;BME280;24384;51.988;4.644;2023-07-29T12:09:54;100738.59;;;20.53;97.28
38630;BME280;24384;51.988;4.644;2023-07-29T12:12:22;100734.19;;;20.76;98.32
38630;BME280;24384;51.988;4.644;2023-07-29T12:14:47;100737.72;;;21.10;98.45
38630;BME280;24384;51.988;4.644;2023-07-29T12:17:13;100731.41;;;21.23;93.68
38630;BME280;24384;51.988;4.644;2023-07-29T12:19:39;100731.69;;;21.75;92.82
38630;BME280;24384;51.988;4.644;2023-07-29T12:22:07;100733.34;;;21.98;92.44
38630;BME280;24384;51.988;4.644;2023-07-29T12:24:36;100727.72;;;22.02;90.71
38630;BME280;24384;51.988;4.644;2023-07-29T12:27:01;100728.53;;;22.13;91.67
38630;BME280;24384;51.988;4.644;2023-07-29T12:29:27;100738.28;;;22.14;90.33
38630;BME280;24384;51.988;4.644;2023-07-29T12:32:03;100727.88;;;22.21;93.77
38630;BME280;24384;51.988;4.644;2023-07-29T12:34:30;100728.66;;;22.44;89.09
38630;BME280;24384;51.988;4.644;2023-07-29T12:36:57;100724.78;;;22.37;88.23
38630;BME280;24384;51.988;4.644;2023-07-29T12:39:25;100720.06;;;22.50;90.18
38630;BME280;24384;51.988;4.644;2023-07-29T12:41:52;100725.00;;;22.45;88.59